sensor_id;sensor_type;location;lat;lon;timestamp;P1;durP1;ratioP1;P2;durP2;ratioP2
5553;SDS011;2800;49.528;8.666;2022-08-19T00:01:09;21.97;;;17.23;;
5553;SDS011;2800;49.528;8.666;2022-08-19T00:03:35;20.20;;;16.20;;
5553;SDS011;2800;49.528;8.666;2022-08-19T00:06:00;24.43;;;17.03;;
5553;SDS011;2800;49.528;8.666;2022-08-19T00:08:26;19.63;;;15.93;;
5553;SDS011;2800;49.528;8.666;2022-08-19T00:10:51;18.70;;;16.80;;
5553;SDS011;2800;49.528;8.666;2022-08-19T00:13:17;21.77;;;17.50;;
5553;SDS011;2800;49.528;8.666;2022-08-19T00:15:43;19.37;;;17.33;;
5553;SDS011;2800;49.528;8.666;2022-08-19T00:18:09;21.30;;;18.30;;
5553;SDS011;2800;49.528;8.666;2022-08-19T00:20:35;26.17;;;16.87;;
5553;SDS011;2800;49.528;8.666;2022-08-19T00:23:01;21.13;;;18.53;;
5553;SDS011;2800;49.528;8.666;2022-08-19T00:25:29;22.53;;;19.17;;
5553;SDS011;2800;49.528;8.666;2022-08-19T00:27:55;20.70;;;18.47;;
5553;SDS011;2800;49.528;8.666;2022-08-19T00:30:20;20.53;;;18.33;;
5553;SDS011;2800;49.528;8.666;2022-08-19T00:32:46;23.37;;;19.00;;
5553;SDS011;2800;49.528;8.666;2022-08-19T00:35:11;27.73;;;18.00;;
5553;SDS011;2800;49.528;8.666;2022-08-19T00:37:37;22.20;;;19.90;;
5553;SDS011;2800;49.528;8.666;2022-08-19T00:40:08;22.70;;;18.50;;
5553;SDS011;2800;49.528;8.666;2022-08-19T00:42:35;22.00;;;18.60;;
5553;SDS011;2800;49.528;8.666;2022-08-19T00:45:00;23.13;;;19.60;;
5553;SDS011;2800;49.528;8.666;2022-08-19T00:47:27;23.40;;;19.27;;
5553;SDS011;2800;49.528;8.666;2022-08-19T00:49:53;21.90;;;18.90;;
5553;SDS011;2800;49.528;8.666;2022-08-19T00:52:31;21.97;;;18.93;;
5553;SDS011;2800;49.528;8.666;2022-08-19T00:54:59;22.17;;;19.50;;
5553;SDS011;2800;49.528;8.666;2022-08-19T00:57:28;22.80;;;19.93;;
5553;SDS011;2800;49.528;8.666;2022-08-19T00:59:57;23.03;;;18.77;;
5553;SDS011;2800;49.528;8.666;2022-08-19T01:02:24;21.80;;;19.37;;
5553;SDS011;2800;49.528;8.666;2022-08-19T01:04:51;22.73;;;19.67;;
5553;SDS011;2800;49.528;8.666;2022-08-19T01:07:17;23.87;;;19.23;;
5553;SDS011;2800;49.528;8.666;2022-08-19T01:09:43;22.70;;;18.50;;
5553;SDS011;2800;49.528;8.666;2022-08-19T01:12:08;23.57;;;19.40;;
5553;SDS011;2800;49.528;8.666;2022-08-19T01:14:34;26.80;;;20.23;;
5553;SDS011;2800;49.528;8.666;2022-08-19T01:17:02;25.00;;;22.30;;
5553;SDS011;2800;49.528;8.666;2022-08-19T01:19:39;23.27;;;20.00;;
5553;SDS011;2800;49.528;8.666;2022-08-19T01:22:09;25.60;;;21.53;;
5553;SDS011;2800;49.528;8.666;2022-08-19T01:24:44;29.53;;;21.33;;
5553;SDS011;2800;49.528;8.666;2022-08-19T01:27:09;26.00;;;21.47;;
5553;SDS011;2800;49.528;8.666;2022-08-19T01:29:37;26.60;;;19.97;;
5553;SDS011;2800;49.528;8.666;2022-08-19T01:32:04;27.50;;;20.80;;
5553;SDS011;2800;49.528;8.666;2022-08-19T01:34:31;27.80;;;22.47;;
5553;SDS011;2800;49.528;8.666;2022-08-19T01:36:56;24.17;;;20.37;;
5553;SDS011;2800;49.528;8.666;2022-08-19T01:39:23;25.40;;;20.23;;
5553;SDS011;2800;49.528;8.666;2022-08-19T01:41:50;27.63;;;19.80;;
5553;SDS011;2800;49.528;8.666;2022-08-19T01:44:19;24.13;;;20.70;;
5553;SDS011;2800;49.528;8.666;2022-08-19T01:46:48;25.93;;;21.00;;
5553;SDS011;2800;49.528;8.666;2022-08-19T01:49:14;26.27;;;21.70;;
5553;SDS011;2800;49.528;8.666;2022-08-19T01:51:42;24.10;;;20.00;;
5553;SDS011;2800;49.528;8.666;2022-08-19T01:54:09;27.53;;;20.60;;
5553;SDS011;2800;49.528;8.666;2022-08-19T01:56:37;33.33;;;20.87;;
5553;SDS011;2800;49.528;8.666;2022-08-19T01:59:04;26.53;;;20.17;;
5553;SDS011;2800;49.528;8.666;2022-08-19T02:01:37;22.60;;;19.70;;
5553;SDS011;2800;49.528;8.666;2022-08-19T02:04:02;27.13;;;19.97;;
5553;SDS011;2800;49.528;8.666;2022-08-19T02:06:28;24.20;;;20.43;;
5553;SDS011;2800;49.528;8.666;2022-08-19T02:08:54;27.10;;;21.83;;
5553;SDS011;2800;49.528;8.666;2022-08-19T02:11:21;26.43;;;22.10;;
5553;SDS011;2800;49.528;8.666;2022-08-19T02:13:49;28.90;;;22.80;;
5553;SDS011;2800;49.528;8.666;2022-08-19T02:16:16;25.53;;;21.63;;
5553;SDS011;2800;49.528;8.666;2022-08-19T02:18:42;28.43;;;21.13;;
5553;SDS011;2800;49.528;8.666;2022-08-19T02:21:08;25.20;;;20.73;;
5553;SDS011;2800;49.528;8.666;2022-08-19T02:23:34;21.63;;;18.80;;
5553;SDS011;2800;49.528;8.666;2022-08-19T02:25:59;23.87;;;20.37;;
5553;SDS011;2800;49.528;8.666;2022-08-19T02:28:26;27.20;;;19.97;;
5553;SDS011;2800;49.528;8.666;2022-08-19T02:30:52;25.30;;;21.37;;
5553;SDS011;2800;49.528;8.666;2022-08-19T02:33:17;24.83;;;20.20;;
5553;SDS011;2800;49.528;8.666;2022-08-19T02:35:44;24.80;;;20.00;;
5553;SDS011;2800;49.528;8.666;2022-08-19T02:38:10;25.73;;;20.80;;
5553;SDS011;2800;49.528;8.666;2022-08-19T02:40:52;26.60;;;20.73;;
5553;SDS011;2800;49.528;8.666;2022-08-19T02:43:23;24.00;;;19.10;;
5553;SDS011;2800;49.528;8.666;2022-08-19T02:45:50;26.77;;;21.23;;
5553;SDS011;2800;49.528;8.666;2022-08-19T02:48:20;24.10;;;20.37;;
5553;SDS011;2800;49.528;8.666;2022-08-19T02:50:47;26.70;;;20.67;;
5553;SDS011;2800;49.528;8.666;2022-08-19T02:53:19;25.23;;;20.20;;
5553;SDS011;2800;49.528;8.666;2022-08-19T02:55:47;23.50;;;19.67;;
5553;SDS011;2800;49.528;8.666;2022-08-19T02:58:13;22.07;;;19.40;;
5553;SDS011;2800;49.528;8.666;2022-08-19T03:00:46;22.40;;;18.90;;
5553;SDS011;2800;49.528;8.666;2022-08-19T03:03:16;23.60;;;19.60;;
5553;SDS011;2800;49.528;8.666;2022-08-19T03:05:43;24.23;;;20.67;;
5553;SDS011;2800;49.528;8.666;2022-08-19T03:08:08;24.70;;;19.20;;
5553;SDS011;2800;49.528;8.666;2022-08-19T03:10:45;21.33;;;18.53;;
5553;SDS011;2800;49.528;8.666;2022-08-19T03:13:12;25.03;;;20.00;;
5553;SDS011;2800;49.528;8.666;2022-08-19T03:15:41;23.90;;;20.53;;
5553;SDS011;2800;49.528;8.666;2022-08-19T03:18:08;23.10;;;19.70;;
5553;SDS011;2800;49.528;8.666;2022-08-19T03:20:34;26.20;;;20.00;;
5553;SDS011;2800;49.528;8.666;2022-08-19T03:23:08;23.20;;;19.20;;
5553;SDS011;2800;49.528;8.666;2022-08-19T03:25:38;24.03;;;19.37;;
5553;SDS011;2800;49.528;8.666;2022-08-19T03:28:06;23.73;;;20.77;;
5553;SDS011;2800;49.528;8.666;2022-08-19T03:30:32;27.33;;;20.17;;
5553;SDS011;2800;49.528;8.666;2022-08-19T03:32:58;24.67;;;21.30;;
5553;SDS011;2800;49.528;8.666;2022-08-19T03:35:23;24.03;;;21.43;;
5553;SDS011;2800;49.528;8.666;2022-08-19T03:37:49;30.40;;;20.90;;
5553;SDS011;2800;49.528;8.666;2022-08-19T03:40:14;24.43;;;20.27;;
5553;SDS011;2800;49.528;8.666;2022-08-19T03:42:40;27.40;;;21.60;;
5553;SDS011;2800;49.528;8.666;2022-08-19T03:45:07;27.53;;;21.97;;
5553;SDS011;2800;49.528;8.666;2022-08-19T03:47:33;27.40;;;21.50;;
5553;SDS011;2800;49.528;8.666;2022-08-19T03:49:58;26.80;;;21.53;;
5553;SDS011;2800;49.528;8.666;2022-08-19T03:52:24;25.73;;;21.03;;
5553;SDS011;2800;49.528;8.666;2022-08-19T03:54:49;28.97;;;21.67;;
5553;SDS011;2800;49.528;8.666;2022-08-19T03:57:15;30.33;;;22.43;;
5553;SDS011;2800;49.528;8.666;2022-08-19T03:59:40;25.90;;;22.50;;
5553;SDS011;2800;49.528;8.666;2022-08-19T04:02:08;24.90;;;21.37;;
5553;SDS011;2800;49.528;8.666;2022-08-19T04:04:36;27.90;;;21.40;;
5553;SDS011;2800;49.528;8.666;2022-08-19T04:07:03;30.90;;;21.53;;
5553;SDS011;2800;49.528;8.666;2022-08-19T04:09:28;24.47;;;21.00;;
5553;SDS011;2800;49.528;8.666;2022-08-19T04:11:54;28.57;;;22.03;;
5553;SDS011;2800;49.528;8.666;2022-08-19T04:14:23;30.33;;;22.40;;
5553;SDS011;2800;49.528;8.666;2022-08-19T04:16:52;27.40;;;21.87;;
5553;SDS011;2800;49.528;8.666;2022-08-19T04:19:17;25.13;;;21.40;;
5553;SDS011;2800;49.528;8.666;2022-08-19T04:21:45;27.03;;;20.87;;
5553;SDS011;2800;49.528;8.666;2022-08-19T04:24:13;25.03;;;21.20;;
5553;SDS011;2800;49.528;8.666;2022-08-19T04:26:39;24.73;;;21.53;;
5553;SDS011;2800;49.528;8.666;2022-08-19T04:29:08;30.40;;;23.77;;
5553;SDS011;2800;49.528;8.666;2022-08-19T04:31:35;31.67;;;24.93;;
5553;SDS011;2800;49.528;8.666;2022-08-19T04:34:02;30.57;;;23.37;;
5553;SDS011;2800;49.528;8.666;2022-08-19T04:36:33;33.80;;;24.17;;
5553;SDS011;2800;49.528;8.666;2022-08-19T04:39:03;28.47;;;23.20;;
5553;SDS011;2800;49.528;8.666;2022-08-19T04:41:32;28.53;;;23.43;;
5553;SDS011;2800;49.528;8.666;2022-08-19T04:44:17;29.00;;;24.67;;
5553;SDS011;2800;49.528;8.666;2022-08-19T04:46:43;36.77;;;24.00;;
5553;SDS011;2800;49.528;8.666;2022-08-19T04:49:10;30.53;;;24.17;;
5553;SDS011;2800;49.528;8.666;2022-08-19T04:51:36;28.97;;;23.80;;
5553;SDS011;2800;49.528;8.666;2022-08-19T04:54:02;33.87;;;23.50;;
5553;SDS011;2800;49.528;8.666;2022-08-19T04:56:28;32.23;;;23.60;;
5553;SDS011;2800;49.528;8.666;2022-08-19T04:58:54;33.50;;;24.23;;
5553;SDS011;2800;49.528;8.666;2022-08-19T05:01:25;28.70;;;23.07;;
5553;SDS011;2800;49.528;8.666;2022-08-19T05:03:53;30.20;;;23.83;;
5553;SDS011;2800;49.528;8.666;2022-08-19T05:06:20;30.93;;;24.80;;
5553;SDS011;2800;49.528;8.666;2022-08-19T05:08:47;32.27;;;22.97;;
5553;SDS011;2800;49.528;8.666;2022-08-19T05:13:59;30.20;;;24.27;;
5553;SDS011;2800;49.528;8.666;2022-08-19T05:16:25;27.50;;;22.40;;
5553;SDS011;2800;49.528;8.666;2022-08-19T05:18:52;34.50;;;21.67;;
5553;SDS011;2800;49.528;8.666;2022-08-19T05:21:37;28.20;;;24.07;;
5553;SDS011;2800;49.528;8.666;2022-08-19T05:24:23;30.93;;;25.20;;
5553;SDS011;2800;49.528;8.666;2022-08-19T05:26:49;35.90;;;25.77;;
5553;SDS011;2800;49.528;8.666;2022-08-19T05:29:16;31.57;;;24.90;;
5553;SDS011;2800;49.528;8.666;2022-08-19T05:31:45;26.57;;;22.40;;
5553;SDS011;2800;49.528;8.666;2022-08-19T05:34:11;31.87;;;24.73;;
5553;SDS011;2800;49.528;8.666;2022-08-19T05:36:39;29.60;;;25.17;;
5553;SDS011;2800;49.528;8.666;2022-08-19T05:39:06;31.30;;;23.47;;
5553;SDS011;2800;49.528;8.666;2022-08-19T05:41:34;37.90;;;25.37;;
5553;SDS011;2800;49.528;8.666;2022-08-19T05:44:01;28.27;;;24.97;;
5553;SDS011;2800;49.528;8.666;2022-08-19T05:46:30;31.80;;;24.43;;
5553;SDS011;2800;49.528;8.666;2022-08-19T05:48:56;30.83;;;24.00;;
5553;SDS011;2800;49.528;8.666;2022-08-19T05:51:22;31.23;;;25.17;;
5553;SDS011;2800;49.528;8.666;2022-08-19T05:53:49;32.43;;;23.47;;
5553;SDS011;2800;49.528;8.666;2022-08-19T05:56:15;32.43;;;24.10;;
5553;SDS011;2800;49.528;8.666;2022-08-19T05:58:42;30.57;;;24.93;;
5553;SDS011;2800;49.528;8.666;2022-08-19T06:01:10;31.40;;;25.03;;
5553;SDS011;2800;49.528;8.666;2022-08-19T06:03:38;34.37;;;25.57;;
5553;SDS011;2800;49.528;8.666;2022-08-19T06:06:04;32.73;;;24.27;;
5553;SDS011;2800;49.528;8.666;2022-08-19T06:08:31;36.00;;;25.20;;
5553;SDS011;2800;49.528;8.666;2022-08-19T06:10:58;30.03;;;24.27;;
5553;SDS011;2800;49.528;8.666;2022-08-19T06:13:40;33.93;;;24.10;;
5553;SDS011;2800;49.528;8.666;2022-08-19T06:16:06;32.93;;;24.07;;
5553;SDS011;2800;49.528;8.666;2022-08-19T06:18:32;27.03;;;22.50;;
5553;SDS011;2800;49.528;8.666;2022-08-19T06:20:58;29.70;;;23.43;;
5553;SDS011;2800;49.528;8.666;2022-08-19T06:23:24;29.10;;;23.50;;
5553;SDS011;2800;49.528;8.666;2022-08-19T06:25:50;35.97;;;22.93;;
5553;SDS011;2800;49.528;8.666;2022-08-19T06:28:16;28.40;;;23.33;;
5553;SDS011;2800;49.528;8.666;2022-08-19T06:30:41;27.20;;;22.47;;
5553;SDS011;2800;49.528;8.666;2022-08-19T06:33:07;26.03;;;21.43;;
5553;SDS011;2800;49.528;8.666;2022-08-19T06:35:32;28.67;;;22.47;;
5553;SDS011;2800;49.528;8.666;2022-08-19T06:38:03;33.30;;;23.50;;
5553;SDS011;2800;49.528;8.666;2022-08-19T06:40:29;31.23;;;24.57;;
5553;SDS011;2800;49.528;8.666;2022-08-19T06:42:55;31.07;;;22.77;;
5553;SDS011;2800;49.528;8.666;2022-08-19T06:45:23;30.30;;;20.70;;
5553;SDS011;2800;49.528;8.666;2022-08-19T06:47:49;24.70;;;21.57;;
5553;SDS011;2800;49.528;8.666;2022-08-19T06:50:14;28.00;;;22.60;;
5553;SDS011;2800;49.528;8.666;2022-08-19T06:52:40;24.57;;;21.13;;
5553;SDS011;2800;49.528;8.666;2022-08-19T06:55:06;24.23;;;21.53;;
5553;SDS011;2800;49.528;8.666;2022-08-19T06:57:32;29.47;;;21.37;;
5553;SDS011;2800;49.528;8.666;2022-08-19T06:59:58;28.57;;;22.63;;
5553;SDS011;2800;49.528;8.666;2022-08-19T07:02:25;26.67;;;21.10;;
5553;SDS011;2800;49.528;8.666;2022-08-19T07:04:51;26.50;;;22.20;;
5553;SDS011;2800;49.528;8.666;2022-08-19T07:07:18;29.27;;;22.77;;
5553;SDS011;2800;49.528;8.666;2022-08-19T07:09:45;28.60;;;22.93;;
5553;SDS011;2800;49.528;8.666;2022-08-19T07:12:12;31.43;;;22.80;;
5553;SDS011;2800;49.528;8.666;2022-08-19T07:14:40;26.40;;;22.50;;
5553;SDS011;2800;49.528;8.666;2022-08-19T07:17:08;27.90;;;22.23;;
5553;SDS011;2800;49.528;8.666;2022-08-19T07:19:37;26.57;;;21.47;;
5553;SDS011;2800;49.528;8.666;2022-08-19T07:22:04;26.73;;;20.83;;
5553;SDS011;2800;49.528;8.666;2022-08-19T07:24:31;25.90;;;20.70;;
5553;SDS011;2800;49.528;8.666;2022-08-19T07:26:58;23.10;;;19.83;;
5553;SDS011;2800;49.528;8.666;2022-08-19T07:29:28;26.20;;;20.47;;
5553;SDS011;2800;49.528;8.666;2022-08-19T07:31:55;27.53;;;19.03;;
5553;SDS011;2800;49.528;8.666;2022-08-19T07:34:21;26.90;;;19.47;;
5553;SDS011;2800;49.528;8.666;2022-08-19T07:36:48;27.33;;;17.80;;
5553;SDS011;2800;49.528;8.666;2022-08-19T07:39:19;23.90;;;18.00;;
5553;SDS011;2800;49.528;8.666;2022-08-19T07:41:47;25.87;;;18.37;;
5553;SDS011;2800;49.528;8.666;2022-08-19T07:44:15;20.23;;;16.87;;
5553;SDS011;2800;49.528;8.666;2022-08-19T07:46:42;21.67;;;17.17;;
5553;SDS011;2800;49.528;8.666;2022-08-19T07:49:12;22.57;;;16.30;;
5553;SDS011;2800;49.528;8.666;2022-08-19T07:51:42;20.67;;;17.23;;
5553;SDS011;2800;49.528;8.666;2022-08-19T07:54:13;21.83;;;17.30;;
5553;SDS011;2800;49.528;8.666;2022-08-19T07:56:38;21.30;;;17.37;;
5553;SDS011;2800;49.528;8.666;2022-08-19T07:59:04;23.47;;;17.17;;
5553;SDS011;2800;49.528;8.666;2022-08-19T08:01:30;19.60;;;16.03;;
5553;SDS011;2800;49.528;8.666;2022-08-19T08:03:56;25.30;;;17.17;;
5553;SDS011;2800;49.528;8.666;2022-08-19T08:06:40;20.27;;;15.63;;
5553;SDS011;2800;49.528;8.666;2022-08-19T08:09:26;24.70;;;16.37;;
5553;SDS011;2800;49.528;8.666;2022-08-19T08:12:05;29.70;;;15.97;;
5553;SDS011;2800;49.528;8.666;2022-08-19T08:14:37;21.50;;;15.13;;
5553;SDS011;2800;49.528;8.666;2022-08-19T08:17:06;21.10;;;15.47;;
5553;SDS011;2800;49.528;8.666;2022-08-19T08:19:32;19.13;;;15.00;;
5553;SDS011;2800;49.528;8.666;2022-08-19T08:21:58;20.03;;;14.20;;
5553;SDS011;2800;49.528;8.666;2022-08-19T08:24:26;16.43;;;14.63;;
5553;SDS011;2800;49.528;8.666;2022-08-19T08:26:53;18.43;;;13.93;;
5553;SDS011;2800;49.528;8.666;2022-08-19T08:29:18;18.97;;;13.47;;
5553;SDS011;2800;49.528;8.666;2022-08-19T08:31:45;18.33;;;13.47;;
5553;SDS011;2800;49.528;8.666;2022-08-19T08:34:12;18.13;;;12.90;;
5553;SDS011;2800;49.528;8.666;2022-08-19T08:36:39;18.90;;;13.10;;
5553;SDS011;2800;49.528;8.666;2022-08-19T08:39:07;20.17;;;12.80;;
5553;SDS011;2800;49.528;8.666;2022-08-19T08:41:40;21.23;;;14.00;;
5553;SDS011;2800;49.528;8.666;2022-08-19T08:44:11;16.90;;;13.50;;
5553;SDS011;2800;49.528;8.666;2022-08-19T08:46:51;23.73;;;14.10;;
5553;SDS011;2800;49.528;8.666;2022-08-19T08:52:00;16.53;;;12.33;;
5553;SDS011;2800;49.528;8.666;2022-08-19T08:54:51;17.80;;;11.60;;
5553;SDS011;2800;49.528;8.666;2022-08-19T08:57:24;16.63;;;11.20;;
5553;SDS011;2800;49.528;8.666;2022-08-19T08:59:52;18.63;;;11.10;;
5553;SDS011;2800;49.528;8.666;2022-08-19T09:02:21;14.67;;;10.10;;
5553;SDS011;2800;49.528;8.666;2022-08-19T09:04:47;15.87;;;10.20;;
5553;SDS011;2800;49.528;8.666;2022-08-19T09:10:10;12.93;;;9.90;;
5553;SDS011;2800;49.528;8.666;2022-08-19T09:15:32;13.20;;;9.97;;
5553;SDS011;2800;49.528;8.666;2022-08-19T09:18:04;14.10;;;7.60;;
5553;SDS011;2800;49.528;8.666;2022-08-19T09:20:31;15.43;;;7.87;;
5553;SDS011;2800;49.528;8.666;2022-08-19T09:22:57;10.87;;;7.73;;
5553;SDS011;2800;49.528;8.666;2022-08-19T09:25:24;12.83;;;8.00;;
5553;SDS011;2800;49.528;8.666;2022-08-19T09:27:50;13.13;;;8.47;;
5553;SDS011;2800;49.528;8.666;2022-08-19T09:30:22;12.80;;;7.70;;
5553;SDS011;2800;49.528;8.666;2022-08-19T09:32:50;9.83;;;7.87;;
5553;SDS011;2800;49.528;8.666;2022-08-19T09:35:20;20.23;;;15.07;;
5553;SDS011;2800;49.528;8.666;2022-08-19T09:37:47;10.10;;;7.33;;
5553;SDS011;2800;49.528;8.666;2022-08-19T09:40:14;17.93;;;7.70;;
5553;SDS011;2800;49.528;8.666;2022-08-19T09:42:41;13.67;;;8.07;;
5553;SDS011;2800;49.528;8.666;2022-08-19T09:45:08;13.63;;;8.80;;
5553;SDS011;2800;49.528;8.666;2022-08-19T09:47:35;13.27;;;8.60;;
5553;SDS011;2800;49.528;8.666;2022-08-19T09:50:03;9.70;;;6.90;;
5553;SDS011;2800;49.528;8.666;2022-08-19T09:52:30;15.23;;;7.50;;
5553;SDS011;2800;49.528;8.666;2022-08-19T09:54:56;10.33;;;6.97;;
5553;SDS011;2800;49.528;8.666;2022-08-19T09:57:21;12.63;;;7.30;;
5553;SDS011;2800;49.528;8.666;2022-08-19T09:59:47;9.73;;;6.50;;
5553;SDS011;2800;49.528;8.666;2022-08-19T10:02:13;9.90;;;6.77;;
5553;SDS011;2800;49.528;8.666;2022-08-19T10:04:38;10.60;;;6.87;;
5553;SDS011;2800;49.528;8.666;2022-08-19T10:07:22;8.63;;;6.10;;
5553;SDS011;2800;49.528;8.666;2022-08-19T10:09:48;16.77;;;6.30;;
5553;SDS011;2800;49.528;8.666;2022-08-19T10:12:13;7.47;;;5.43;;
5553;SDS011;2800;49.528;8.666;2022-08-19T10:14:40;16.30;;;6.60;;
5553;SDS011;2800;49.528;8.666;2022-08-19T10:17:06;13.00;;;7.10;;
5553;SDS011;2800;49.528;8.666;2022-08-19T10:19:31;9.00;;;5.37;;
5553;SDS011;2800;49.528;8.666;2022-08-19T10:22:02;8.33;;;5.40;;
5553;SDS011;2800;49.528;8.666;2022-08-19T10:24:29;7.63;;;5.13;;
5553;SDS011;2800;49.528;8.666;2022-08-19T10:26:55;8.30;;;5.40;;
5553;SDS011;2800;49.528;8.666;2022-08-19T10:29:22;9.60;;;6.17;;
5553;SDS011;2800;49.528;8.666;2022-08-19T10:31:47;8.17;;;5.27;;
5553;SDS011;2800;49.528;8.666;2022-08-19T10:34:13;10.30;;;5.60;;
5553;SDS011;2800;49.528;8.666;2022-08-19T10:36:38;8.03;;;4.77;;
5553;SDS011;2800;49.528;8.666;2022-08-19T10:39:05;6.73;;;4.93;;
5553;SDS011;2800;49.528;8.666;2022-08-19T10:41:34;7.03;;;5.10;;
5553;SDS011;2800;49.528;8.666;2022-08-19T10:44:06;8.43;;;5.50;;
5553;SDS011;2800;49.528;8.666;2022-08-19T10:46:33;9.40;;;5.90;;
5553;SDS011;2800;49.528;8.666;2022-08-19T10:49:02;8.37;;;6.07;;
5553;SDS011;2800;49.528;8.666;2022-08-19T10:51:29;9.57;;;6.43;;
5553;SDS011;2800;49.528;8.666;2022-08-19T10:54:14;10.80;;;7.03;;
5553;SDS011;2800;49.528;8.666;2022-08-19T10:56:40;10.33;;;6.57;;
5553;SDS011;2800;49.528;8.666;2022-08-19T11:01:52;8.50;;;6.10;;
5553;SDS011;2800;49.528;8.666;2022-08-19T11:04:19;8.00;;;5.80;;
5553;SDS011;2800;49.528;8.666;2022-08-19T11:06:45;10.93;;;6.37;;
5553;SDS011;2800;49.528;8.666;2022-08-19T11:09:16;9.83;;;5.93;;
5553;SDS011;2800;49.528;8.666;2022-08-19T11:11:44;9.40;;;5.93;;
5553;SDS011;2800;49.528;8.666;2022-08-19T11:14:14;8.37;;;6.13;;
5553;SDS011;2800;49.528;8.666;2022-08-19T11:16:43;10.23;;;6.93;;
5553;SDS011;2800;49.528;8.666;2022-08-19T11:19:09;11.50;;;7.10;;
5553;SDS011;2800;49.528;8.666;2022-08-19T11:21:40;9.80;;;6.70;;
5553;SDS011;2800;49.528;8.666;2022-08-19T11:24:12;9.83;;;7.70;;
5553;SDS011;2800;49.528;8.666;2022-08-19T11:26:41;10.20;;;7.17;;
5553;SDS011;2800;49.528;8.666;2022-08-19T11:29:08;10.57;;;7.23;;
5553;SDS011;2800;49.528;8.666;2022-08-19T11:31:36;18.23;;;8.57;;
5553;SDS011;2800;49.528;8.666;2022-08-19T11:34:05;9.57;;;7.03;;
5553;SDS011;2800;49.528;8.666;2022-08-19T11:36:32;16.70;;;8.57;;
5553;SDS011;2800;49.528;8.666;2022-08-19T11:38:58;10.10;;;7.80;;
5553;SDS011;2800;49.528;8.666;2022-08-19T11:41:24;12.70;;;8.10;;
5553;SDS011;2800;49.528;8.666;2022-08-19T11:43:51;16.10;;;8.80;;
5553;SDS011;2800;49.528;8.666;2022-08-19T11:46:20;10.87;;;8.20;;
5553;SDS011;2800;49.528;8.666;2022-08-19T11:48:48;15.07;;;7.90;;
5553;SDS011;2800;49.528;8.666;2022-08-19T11:51:17;10.53;;;7.60;;
5553;SDS011;2800;49.528;8.666;2022-08-19T11:53:44;11.00;;;8.07;;
5553;SDS011;2800;49.528;8.666;2022-08-19T11:56:10;9.43;;;7.87;;
5553;SDS011;2800;49.528;8.666;2022-08-19T11:58:36;16.27;;;7.70;;
5553;SDS011;2800;49.528;8.666;2022-08-19T12:01:06;12.07;;;8.33;;
5553;SDS011;2800;49.528;8.666;2022-08-19T12:03:37;12.87;;;8.27;;
5553;SDS011;2800;49.528;8.666;2022-08-19T12:06:14;8.83;;;7.43;;
5553;SDS011;2800;49.528;8.666;2022-08-19T12:08:42;12.40;;;9.30;;
5553;SDS011;2800;49.528;8.666;2022-08-19T12:11:09;12.17;;;8.47;;
5553;SDS011;2800;49.528;8.666;2022-08-19T12:13:36;12.57;;;9.60;;
5553;SDS011;2800;49.528;8.666;2022-08-19T12:16:07;14.10;;;8.70;;
5553;SDS011;2800;49.528;8.666;2022-08-19T12:18:36;10.63;;;8.83;;
5553;SDS011;2800;49.528;8.666;2022-08-19T12:21:02;10.67;;;8.97;;
5553;SDS011;2800;49.528;8.666;2022-08-19T12:23:28;12.23;;;9.57;;
5553;SDS011;2800;49.528;8.666;2022-08-19T12:25:53;12.27;;;8.80;;
5553;SDS011;2800;49.528;8.666;2022-08-19T12:28:19;9.33;;;8.00;;
5553;SDS011;2800;49.528;8.666;2022-08-19T12:30:47;13.90;;;8.80;;
5553;SDS011;2800;49.528;8.666;2022-08-19T12:33:15;11.60;;;8.60;;
5553;SDS011;2800;49.528;8.666;2022-08-19T12:35:41;12.13;;;9.40;;
5553;SDS011;2800;49.528;8.666;2022-08-19T12:38:07;11.83;;;8.67;;
5553;SDS011;2800;49.528;8.666;2022-08-19T12:40:33;11.30;;;8.50;;
5553;SDS011;2800;49.528;8.666;2022-08-19T12:42:58;10.40;;;8.60;;
5553;SDS011;2800;49.528;8.666;2022-08-19T12:45:24;9.30;;;7.43;;
5553;SDS011;2800;49.528;8.666;2022-08-19T12:47:49;12.07;;;8.03;;
5553;SDS011;2800;49.528;8.666;2022-08-19T12:50:17;10.03;;;7.47;;
5553;SDS011;2800;49.528;8.666;2022-08-19T12:52:43;11.57;;;7.47;;
5553;SDS011;2800;49.528;8.666;2022-08-19T12:55:09;8.50;;;7.27;;
5553;SDS011;2800;49.528;8.666;2022-08-19T12:57:36;13.03;;;7.77;;
5553;SDS011;2800;49.528;8.666;2022-08-19T13:02:37;10.60;;;6.67;;
5553;SDS011;2800;49.528;8.666;2022-08-19T13:05:06;8.13;;;6.30;;
5553;SDS011;2800;49.528;8.666;2022-08-19T13:07:33;9.50;;;7.20;;
5553;SDS011;2800;49.528;8.666;2022-08-19T13:09:59;11.23;;;6.30;;
5553;SDS011;2800;49.528;8.666;2022-08-19T13:12:25;7.97;;;5.83;;
5553;SDS011;2800;49.528;8.666;2022-08-19T13:14:51;10.90;;;7.10;;
5553;SDS011;2800;49.528;8.666;2022-08-19T13:17:17;10.57;;;7.50;;
5553;SDS011;2800;49.528;8.666;2022-08-19T13:19:43;9.77;;;6.47;;
5553;SDS011;2800;49.528;8.666;2022-08-19T13:22:09;11.90;;;7.27;;
5553;SDS011;2800;49.528;8.666;2022-08-19T13:24:34;10.30;;;6.30;;
5553;SDS011;2800;49.528;8.666;2022-08-19T13:27:01;9.07;;;6.70;;
5553;SDS011;2800;49.528;8.666;2022-08-19T13:29:27;8.87;;;6.57;;
5553;SDS011;2800;49.528;8.666;2022-08-19T13:32:11;8.20;;;6.50;;
5553;SDS011;2800;49.528;8.666;2022-08-19T13:34:55;9.13;;;5.90;;
5553;SDS011;2800;49.528;8.666;2022-08-19T13:37:21;9.20;;;6.43;;
5553;SDS011;2800;49.528;8.666;2022-08-19T13:40:06;8.90;;;6.13;;
5553;SDS011;2800;49.528;8.666;2022-08-19T13:42:44;8.43;;;6.10;;
5553;SDS011;2800;49.528;8.666;2022-08-19T13:45:13;8.30;;;5.83;;
5553;SDS011;2800;49.528;8.666;2022-08-19T13:47:40;8.50;;;6.00;;
5553;SDS011;2800;49.528;8.666;2022-08-19T13:50:09;7.90;;;6.00;;
5553;SDS011;2800;49.528;8.666;2022-08-19T13:52:36;7.00;;;5.47;;
5553;SDS011;2800;49.528;8.666;2022-08-19T13:55:03;7.37;;;5.40;;
5553;SDS011;2800;49.528;8.666;2022-08-19T13:57:29;9.00;;;5.73;;
5553;SDS011;2800;49.528;8.666;2022-08-19T13:59:55;7.40;;;5.67;;
5553;SDS011;2800;49.528;8.666;2022-08-19T14:02:22;7.00;;;5.33;;
5553;SDS011;2800;49.528;8.666;2022-08-19T14:04:48;8.20;;;5.70;;
5553;SDS011;2800;49.528;8.666;2022-08-19T14:07:14;8.80;;;6.60;;
5553;SDS011;2800;49.528;8.666;2022-08-19T14:09:39;8.87;;;6.67;;
5553;SDS011;2800;49.528;8.666;2022-08-19T14:12:05;7.53;;;5.97;;
5553;SDS011;2800;49.528;8.666;2022-08-19T14:14:31;10.70;;;6.47;;
5553;SDS011;2800;49.528;8.666;2022-08-19T14:16:57;10.30;;;6.30;;
5553;SDS011;2800;49.528;8.666;2022-08-19T14:19:23;8.30;;;6.60;;
5553;SDS011;2800;49.528;8.666;2022-08-19T14:21:48;7.97;;;6.13;;
5553;SDS011;2800;49.528;8.666;2022-08-19T14:24:14;7.10;;;5.90;;
5553;SDS011;2800;49.528;8.666;2022-08-19T14:26:39;11.17;;;5.87;;
5553;SDS011;2800;49.528;8.666;2022-08-19T14:29:05;10.40;;;5.53;;
5553;SDS011;2800;49.528;8.666;2022-08-19T14:31:30;7.93;;;5.70;;
5553;SDS011;2800;49.528;8.666;2022-08-19T14:33:56;9.77;;;5.60;;
5553;SDS011;2800;49.528;8.666;2022-08-19T14:36:21;9.97;;;5.93;;
5553;SDS011;2800;49.528;8.666;2022-08-19T14:38:47;11.60;;;6.70;;
5553;SDS011;2800;49.528;8.666;2022-08-19T14:41:17;8.40;;;6.00;;
5553;SDS011;2800;49.528;8.666;2022-08-19T14:43:45;6.80;;;5.10;;
5553;SDS011;2800;49.528;8.666;2022-08-19T14:46:13;8.33;;;6.00;;
5553;SDS011;2800;49.528;8.666;2022-08-19T14:48:40;8.27;;;6.17;;
5553;SDS011;2800;49.528;8.666;2022-08-19T14:51:06;7.83;;;5.80;;
5553;SDS011;2800;49.528;8.666;2022-08-19T14:53:32;8.67;;;5.40;;
5553;SDS011;2800;49.528;8.666;2022-08-19T14:55:58;9.33;;;5.60;;
5553;SDS011;2800;49.528;8.666;2022-08-19T14:58:24;9.20;;;5.93;;
5553;SDS011;2800;49.528;8.666;2022-08-19T15:00:50;8.07;;;5.50;;
5553;SDS011;2800;49.528;8.666;2022-08-19T15:03:16;9.77;;;5.50;;
5553;SDS011;2800;49.528;8.666;2022-08-19T15:05:41;8.80;;;6.00;;
5553;SDS011;2800;49.528;8.666;2022-08-19T15:08:07;7.57;;;5.83;;
5553;SDS011;2800;49.528;8.666;2022-08-19T15:10:32;8.10;;;5.77;;
5553;SDS011;2800;49.528;8.666;2022-08-19T15:12:58;7.80;;;5.70;;
5553;SDS011;2800;49.528;8.666;2022-08-19T15:15:24;7.53;;;5.63;;